Impacts TAF Board INFO
FOR SITUATIONAL AWARENESS. NOT TO BE USED FOR FLIGHT PLANNING PURPOSES.
IDs:

KPIT - Pittsburgh Intl, PA, US

Issued at 0258 UTC 20 Aug 2018
Updated at 0330 UTC 20 Aug 2018
Potential Impact None Slight Moderate High
Time<<21/04Z 21/05Z 21/06Z 21/07Z 21/08Z 21/09Z 21/10Z 21/11Z 21/12Z 21/13Z 21/14Z 21/15Z 21/16Z
Type PRVL PRVL
VIS >6 >6
CIG -- --
Cover SCT SCT
FltCat VFR VFR
WX -- --
WDir 120 120
WSpd 8 8
WGst -- --

Raw TAF
KPIT 200258Z 2003/2106 04005KT P6SM SCT050
  FM201700 16008KT P6SM BKN050
  FM210100 12008KT P6SM SCT050


METAR Board
Radar Display
Forecast Discussion

FOR SITUATIONAL AWARENESS. NOT TO BE USED FOR FLIGHT PLANNING PURPOSES.